Map

Track Data

SID SEASON NUMBER BASIN SUBBASIN NAME ISO_TIME NATURE LAT LON WMO_WIND WMO_PRES WMO_AGENCY TRACK_TYPE DIST2LAND LANDFALL IFLAG USA_AGENCY USA_ATCF_ID USA_LAT USA_LON USA_RECORD USA_STATUS USA_WIND USA_PRES USA_SSHS USA_R34_NE USA_R34_SE USA_R34_SW USA_R34_NW USA_R50_NE USA_R50_SE USA_R50_SW USA_R50_NW USA_R64_NE USA_R64_SE USA_R64_SW USA_R64_NW USA_POCI USA_ROCI USA_RMW USA_EYE TOKYO_LAT TOKYO_LON TOKYO_GRADE TOKYO_WIND TOKYO_PRES TOKYO_R50_DIR TOKYO_R50_LONG TOKYO_R50_SHORT TOKYO_R30_DIR TOKYO_R30_LONG TOKYO_R30_SHORT TOKYO_LAND CMA_LAT CMA_LON CMA_CAT CMA_WIND CMA_PRES HKO_LAT HKO_LON HKO_CAT HKO_WIND HKO_PRES NEWDELHI_LAT NEWDELHI_LON NEWDELHI_GRADE NEWDELHI_WIND NEWDELHI_PRES NEWDELHI_CI NEWDELHI_DP NEWDELHI_POCI REUNION_LAT REUNION_LON REUNION_TYPE REUNION_WIND REUNION_PRES REUNION_TNUM REUNION_CI REUNION_RMW REUNION_R34_NE REUNION_R34_SE REUNION_R34_SW REUNION_R34_NW REUNION_R50_NE REUNION_R50_SE REUNION_R50_SW REUNION_R50_NW REUNION_R64_NE REUNION_R64_SE REUNION_R64_SW REUNION_R64_NW BOM_LAT BOM_LON BOM_TYPE BOM_WIND BOM_PRES BOM_TNUM BOM_CI BOM_RMW BOM_R34_NE BOM_R34_SE BOM_R34_SW BOM_R34_NW BOM_R50_NE BOM_R50_SE BOM_R50_SW BOM_R50_NW BOM_R64_NE BOM_R64_SE BOM_R64_SW BOM_R64_NW BOM_ROCI BOM_POCI BOM_EYE BOM_POS_METHOD BOM_PRES_METHOD NADI_LAT NADI_LON NADI_CAT NADI_WIND NADI_PRES WELLINGTON_LAT WELLINGTON_LON WELLINGTON_WIND WELLINGTON_PRES DS824_LAT DS824_LON DS824_STAGE DS824_WIND DS824_PRES TD9636_LAT TD9636_LON TD9636_STAGE TD9636_WIND TD9636_PRES TD9635_LAT TD9635_LON TD9635_WIND TD9635_PRES TD9635_ROCI NEUMANN_LAT NEUMANN_LON NEUMANN_CLASS NEUMANN_WIND NEUMANN_PRES MLC_LAT MLC_LON MLC_CLASS MLC_WIND MLC_PRES USA_GUST BOM_GUST BOM_GUST_PER REUNION_GUST REUNION_GUST_PER USA_SEAHGT USA_SEARAD_NE USA_SEARAD_SE USA_SEARAD_SW USA_SEARAD_NW STORM_SPEED STORM_DIR
1961071S15187 1961 30 SP MM NOT_NAMED 1961-03-12 00:00:00 TS -14.5000 -173.500 main 124 109 O________OO_O_ jtwc_sh SH261961 -14.5000 -173.500 -1 -14.5000 186.500 TC 65 -14.5000 -173.500 4 -14.5000 -173.500 TC 30 3 51
1961071S15187 1961 30 SP MM NOT_NAMED 1961-03-12 03:00:00 TS -14.4100 -173.387 main 109 94 P________PP_P_ SH261961 -14.4050 -173.407 -1 -14.4050 -173.407 TC 65 -14.4250 -173.394 4 -14.4050 -173.337 TC 32 3 49
1961071S15187 1961 30 SP MM NOT_NAMED 1961-03-12 06:00:00 TS -14.3075 -173.270 main 94 78 O________OP_O_ jtwc_sh SH261961 -14.3000 -173.300 -1 -14.3000 186.700 TC 65 -14.3299 -173.280 4 -14.3000 -173.200 TC 35 3 45
1961071S15187 1961 30 SP MM NOT_NAMED 1961-03-12 09:00:00 TS -14.1781 -173.145 main 70 48 P________PP_P_ SH261961 -14.1725 -173.165 -1 -14.1725 -173.165 TC 65 -14.1949 -173.152 4 -14.1725 -173.100 TC 35 4 40
1961071S15187 1961 30 SP MM NOT_NAMED 1961-03-12 12:00:00 TS -14.0000 -173.000 main 48 21 O________OO_O_ jtwc_sh SH261961 -14.0000 -173.000 -1 -14.0000 187.000 TC 65 -14.0000 -173.000 4 -14.0000 -173.000 TC 35 5 37
1961071S15187 1961 30 SP MM NOT_NAMED 1961-03-12 15:00:00 TS -13.7581 -172.822 main 21 0 P________PP_P_ SH261961 -13.7650 -172.800 -1 -13.7650 -172.800 TC 65 -13.7373 -172.823 4 -13.7650 -172.865 TC 35 6 35
1961071S15187 1961 30 SP MM NOT_NAMED 1961-03-12 18:00:00 TS -13.4869 -172.634 main 0 0 O________OP_O_ jtwc_sh SH261961 -13.5000 -172.600 -1 -13.5000 187.400 TC 65 -13.4476 -172.635 4 -13.5000 -172.700 TC 35 7 33
1961071S15187 1961 30 SP MM NOT_NAMED 1961-03-12 21:00:00 TS -13.2054 -172.454 main 33 33 P________PP_P_ SH261961 -13.2125 -172.435 -1 -13.2125 -172.435 TC 65 -13.1841 -172.454 4 -13.2125 -172.492 TC 37 6 34
1961071S15187 1961 30 SP MM NOT_NAMED 1961-03-13 00:00:00 TS -13.0000 -172.300 main 57 57 O________OO_O_ jtwc_sh SH261961 -13.0000 -172.300 -1 -13.0000 187.700 TC 65 -13.0000 -172.300 4 -13.0000 -172.300 TC 40 4 46
1961071S15187 1961 30 SP MM NOT_NAMED 1961-03-13 03:00:00 TS -12.9485 -172.183 main 70 60 P________PP_P_ SH261961 -12.9475 -172.185 -1 -12.9475 -172.185 TC 65 -12.9515 -172.184 4 -12.9475 -172.178 TC 42 2 89
1961071S15187 1961 30 SP MM NOT_NAMED 1961-03-13 06:00:00 TS -12.9969 -172.099 main 64 55 O________OP_O_ jtwc_sh SH261961 -13.0000 -172.100 -1 -13.0000 187.900 TC 65 -12.9874 -172.098 4 -13.0000 -172.100 TC 45 2 133
1961071S15187 1961 30 SP MM NOT_NAMED 1961-03-13 09:00:00 TS -13.0837 -172.036 main 62 54 P________PP_P_ SH261961 -13.0850 -172.035 -1 -13.0850 -172.035 TC 65 -13.0797 -172.037 4 -13.0850 -172.035 TC 45 2 155
1961071S15187 1961 30 SP MM NOT_NAMED 1961-03-13 12:00:00 TS -13.2000 -172.000 main 54 46 O________OO_O_ jtwc_sh SH261961 -13.2000 -172.000 -1 -13.2000 188.000 TC 65 -13.2000 -172.000 4 -13.2000 -172.000 TC 45 2 172
1961071S15187 1961 30 SP MM NOT_NAMED 1961-03-13 15:00:00 TS -13.2871 -171.987 main 46 39 P________PP_P_ SH261961 -13.2925 -171.992 -1 -13.2925 -171.992 TC 65 -13.2709 -171.970 4 -13.2925 -171.992 TC 47 2 172
1961071S15187 1961 30 SP MM NOT_NAMED 1961-03-13 18:00:00 TS -13.3919 -171.991 main 39 31 O________OP_O_ jtwc_sh SH261961 -13.4000 -172.000 -1 -13.4000 188.000 TC 65 -13.3675 -171.963 4 -13.4000 -172.000 TC 50 2 0
1961071S15187 1961 30 SP MM NOT_NAMED 1961-03-13 21:00:00 TS -13.5145 -171.988 main 31 21 P________PP_P_ SH261961 -13.5200 -171.993 -1 -13.5200 -171.993 TC 65 -13.5053 -171.974 4 -13.5125 -171.993 TC 52 3 184
1961071S15187 1961 30 SP MM NOT_NAMED 1961-03-14 00:00:00 TS -13.7000 -172.000 main 21 21 O________OO_O_ jtwc_sh SH261961 -13.7000 -172.000 -1 -13.7000 188.000 TC 65 -13.7000 -172.000 4 -13.7000 -172.000 TC 55 5 187
1961071S15187 1961 30 SP MM NOT_NAMED 1961-03-14 03:00:00 TS -13.9868 -172.039 main 31 31 P________PP_P_ SH261961 -13.9700 -172.042 -1 -13.9700 -172.042 TC 65 -13.9797 -172.027 4 -14.0275 -172.042 TC 57 6 188
1961071S15187 1961 30 SP MM NOT_NAMED 1961-03-14 06:00:00 TS -14.3281 -172.092 main 57 57 O________OP_O_ jtwc_sh SH261961 -14.3000 -172.100 -1 -14.3000 187.900 TC 65 -14.3125 -172.070 4 -14.4000 -172.100 TC 60 7 188
1961071S15187 1961 30 SP MM NOT_NAMED 1961-03-14 09:00:00 TS -14.6735 -172.139 main 101 100 P________PP_P_ SH261961 -14.6575 -172.143 -1 -14.6575 -172.143 TC 65 -14.6641 -172.128 4 -14.7150 -172.143 TC 62 7 189
1961071S15187 1961 30 SP MM NOT_NAMED 1961-03-14 12:00:00 TS -15.0000 -172.200 main 134 134 O________OO_O_ jtwc_sh SH261961 -15.0000 -172.200 -1 -15.0000 187.800 TC 65 -15.0000 -172.200 4 -15.0000 -172.200 TC 65 6 193
1961071S15187 1961 30 SP MM NOT_NAMED 1961-03-14 15:00:00 TS -15.2647 -172.283 main 167 167 P________PP_P_ SH261961 -15.2650 -172.293 -1 -15.2650 -172.293 TC 65 -15.2714 -172.253 4 -15.2575 -172.292 TC 65 5 199
1961071S15187 1961 30 SP MM NOT_NAMED 1961-03-14 18:00:00 TS -15.5056 -172.381 main 190 190 O________OP_O_ jtwc_sh SH261961 -15.5000 -172.400 -1 -15.5000 187.600 TC 65 -15.5222 -172.326 4 -15.5000 -172.400 TC 65 5 199
1961071S15187 1961 30 SP MM NOT_NAMED 1961-03-14 21:00:00 TS -15.7529 -172.461 main 223 223 P________PP_P_ SH261961 -15.7499 -172.470 -1 -15.7499 -172.470 TC 65 -15.7619 -172.435 4 -15.7499 -172.470 TC 67 5 203
1961071S15187 1961 30 SP MM NOT_NAMED 1961-03-15 00:00:00 TS -16.0000 -172.600 main 246 246 O________OO_O_ jtwc_sh SH261961 -16.0000 -172.600 -1 -16.0000 187.400 TC 65 -16.0000 -172.600 4 -16.0000 -172.600 TC 70 6 219
1961071S15187 1961 30 SP MM NOT_NAMED 1961-03-15 03:00:00 TS -16.2471 -172.872 main 270 270 P________PP_P_ SH261961 -16.2501 -172.870 -1 -16.2501 -172.870 TC 65 -16.2383 -172.879 4 -16.2501 -172.870 TC 72 8 229
1961071S15187 1961 30 SP MM NOT_NAMED 1961-03-15 06:00:00 TS -16.4945 -173.202 main 309 309 O________OP_O_ jtwc_sh SH261961 -16.5000 -173.200 -1 -16.5000 186.800 TC 65 -16.4782 -173.207 4 -16.5000 -173.200 TC 75 8 232
1961071S15187 1961 30 SP MM NOT_NAMED 1961-03-15 09:00:00 TS -16.7391 -173.530 main 338 338 P________PP_P_ SH261961 -16.7426 -173.530 -1 -16.7426 -173.530 TC 65 -16.7289 -173.532 4 -16.7426 -173.530 TC 77 8 229
1961071S15187 1961 30 SP MM NOT_NAMED 1961-03-15 12:00:00 TS -17.0000 -173.800 main 380 380 O________OO_O_ jtwc_sh SH261961 -17.0000 -173.800 -1 -17.0000 186.200 TC 65 -17.0000 -173.800 4 -17.0000 -173.800 TC 80 7 215
1961071S15187 1961 30 SP MM NOT_NAMED 1961-03-15 15:00:00 TS -17.2905 -173.939 main 415 415 P________PP_P_ SH261961 -17.2849 -173.938 -1 -17.2849 -173.938 TC 65 -17.3072 -173.944 4 -17.2849 -173.938 TC 82 6 198
1961071S15187 1961 30 SP MM NOT_NAMED 1961-03-15 18:00:00 TS -17.6087 -174.006 main 450 450 O________OP_O_ jtwc_sh SH261961 -17.6000 -174.000 -1 -17.6000 186.000 TC 65 -17.6347 -174.026 4 -17.6000 -174.000 TC 85 7 190
1961071S15187 1961 30 SP MM NOT_NAMED 1961-03-15 21:00:00 TS -17.9549 -174.060 main 496 496 P________PP_P_ SH261961 -17.9500 -174.058 -1 -17.9500 -174.058 TC 65 -17.9698 -174.069 4 -17.9500 -174.058 TC 85 7 187
1961071S15187 1961 30 SP MM NOT_NAMED 1961-03-16 00:00:00 TS -18.3000 -174.100 main 528 528 O________OO_O_ jtwc_sh SH261961 -18.3000 -174.100 -1 -18.3000 185.900 TC 65 -18.3000 -174.100 4 -18.3000 -174.100 TC 85 7 187
1961071S15187 1961 30 SP MM NOT_NAMED 1961-03-16 03:00:00 TS -18.6115 -174.157 main 563 563 P________PP_P_ SH261961 -18.6075 -174.150 -1 -18.6075 -174.150 TC 65 -18.6234 -174.177 4 -18.6075 -174.150 TC 82 6 190
1961071S15187 1961 30 SP MM NOT_NAMED 1961-03-16 06:00:00 TS -18.9094 -174.211 main 595 595 O________OP_O_ jtwc_sh SH261961 -18.9000 -174.200 -1 -18.9000 185.800 TC 65 -18.9375 -174.245 4 -18.9000 -174.200 TC 80 6 190
1961071S15187 1961 30 SP MM NOT_NAMED 1961-03-16 09:00:00 TS -19.2194 -174.267 main 630 630 P________PP_P_ SH261961 -19.2150 -174.257 -1 -19.2150 -174.257 TC 65 -19.2328 -174.290 4 -19.2150 -174.265 TC 77 6 188
1961071S15187 1961 30 SP MM NOT_NAMED 1961-03-16 12:00:00 TS -19.5000 -174.300 main 663 663 O________OO_O_ jtwc_sh SH261961 -19.5000 -174.300 -1 -19.5000 185.700 TC 65 -19.5000 -174.300 4 -19.5000 -174.300 TC 75 5 185
1961071S15187 1961 30 SP MM NOT_NAMED 1961-03-16 15:00:00 TS -19.7133 -174.307 main 684 684 P________PP_P_ SH261961 -19.7150 -174.330 -1 -19.7150 -174.330 TC 65 -19.7082 -174.297 4 -19.7150 -174.273 TC 72 4 175
1961071S15187 1961 30 SP MM NOT_NAMED 1961-03-16 18:00:00 TS -19.8980 -174.264 main 703 703 O________OP_O_ jtwc_sh SH261961 -19.9000 -174.300 -1 -19.9000 185.700 TC 65 -19.8922 -174.254 4 -19.9000 -174.200 TC 70 4 160
1961071S15187 1961 30 SP MM NOT_NAMED 1961-03-16 21:00:00 TS -20.0819 -174.166 main 723 722 P________PP_P_ SH261961 -20.0850 -174.187 -1 -20.0850 -174.187 TC 65 -20.0800 -174.159 4 -20.0774 -174.130 TC 67 5 148
1961071S15187 1961 30 SP MM NOT_NAMED 1961-03-17 00:00:00 TS -20.3000 -174.000 main 742 742 O________OO_O_ jtwc_sh SH261961 -20.3000 -174.000 -1 -20.3000 186.000 TC 65 -20.3000 -174.000 4 -20.3000 -174.000 TC 65 6 145
1961071S15187 1961 30 SP MM NOT_NAMED 1961-03-17 03:00:00 TS -20.5998 -173.782 main 771 771 P________PP_P_ SH261961 -20.5774 -173.780 -1 -20.5774 -173.780 TC 65 -20.6094 -173.781 4 -20.6350 -173.788 TC 65 8 144
1961071S15187 1961 30 SP MM NOT_NAMED 1961-03-17 06:00:00 TS -20.9375 -173.500 main 800 800 O________OP_O_ jtwc_sh SH261961 -20.9000 -173.500 -1 -20.9000 186.500 TC 65 -20.9500 -173.498 4 -21.0000 -173.500 TC 65 9 140
1961071S15187 1961 30 SP MM NOT_NAMED 1961-03-17 09:00:00 TS -21.2858 -173.167 main 841 840 P________PP_P_ SH261961 -21.2650 -173.165 -1 -21.2650 -173.165 TC 65 -21.2905 -173.166 4 -21.3225 -173.172 TC 62 9 136
1961071S15187 1961 30 SP MM NOT_NAMED 1961-03-17 12:00:00 TS -21.6000 -172.800 main 873 872 O________OO_O_ jtwc_sh SH261961 -21.6000 -172.800 -1 -21.6000 187.200 TC 65 -21.6000 -172.800 4 -21.6000 -172.800 TC 60 8 129
1961071S15187 1961 30 SP MM NOT_NAMED 1961-03-17 15:00:00 TS -21.8103 -172.459 main 895 895 P________PP_P_ SH261961 -21.8223 -172.465 -1 -21.8223 -172.465 TC 65 -21.7815 -172.499 4 -21.8150 -172.407 TC 60 8 120
1961071S15187 1961 30 SP MM NOT_NAMED 1961-03-17 18:00:00 TS -21.9843 -172.090 main 917 917 O________OP_O_ jtwc_sh SH261961 -22.0000 -172.100 -1 -22.0000 187.900 TC 65 -21.9373 -172.160 4 -22.0000 -172.000 TC 60 8 116
1961071S15187 1961 30 SP MM NOT_NAMED 1961-03-17 21:00:00 TS -22.1469 -171.710 main 930 930 P________PP_P_ SH261961 -22.1544 -171.716 -1 -22.1544 -171.716 TC 65 -22.1246 -171.741 4 -22.1542 -171.666 TC 57 9 117
1961071S15187 1961 30 SP MM NOT_NAMED 1961-03-18 00:00:00 TS -22.4000 -171.200 main 967 967 O________OO_O_ jtwc_sh SH261961 -22.4000 -171.200 -1 -22.4000 188.800 TC 65 -22.4000 -171.200 4 -22.4000 -171.200 TC 55 14 121
1961071S15187 1961 30 SP MM NOT_NAMED 1961-03-18 03:00:00 TS -22.8483 -170.453 main 1022 1022 P________PP_P_ SH261961 -22.8476 -170.468 -1 -22.8476 -170.468 TC 65 -22.8500 -170.458 4 -22.8479 -170.418 TC 52 18 124
1961071S15187 1961 30 SP MM NOT_NAMED 1961-03-18 06:00:00 TS -23.3964 -169.574 main 1108 1108 O________OP_O_ jtwc_sh SH261961 -23.4000 -169.600 -1 -23.4000 190.400 TC 65 -23.3858 -169.595 4 -23.4000 -169.500 TC 50 20 124
1961071S15187 1961 30 SP MM NOT_NAMED 1961-03-18 09:00:00 TS -23.9602 -168.670 main 1198 1198 P________PP_P_ SH261961 -23.9652 -168.685 -1 -23.9652 -168.685 TC 65 -23.9532 -168.683 4 -23.9574 -168.628 TC 47 20 124
1961071S15187 1961 30 SP MM NOT_NAMED 1961-03-18 12:00:00 TS -24.5000 -167.800 main 1282 1282 O________OO_O_ jtwc_sh SH261961 -24.5000 -167.800 -1 -24.5000 192.200 TC 65 -24.5000 -167.800 4 -24.5000 -167.800 TC 45 18 124
1961071S15187 1961 30 SP MM NOT_NAMED 1961-03-18 15:00:00 TS -24.9370 -167.064 main 1351 1351 P________PP_P_ SH261961 -24.9142 -167.069 -1 -24.9142 -167.069 TC 65 -24.9479 -167.042 4 -24.9718 -167.077 TC 42 15 123
1961071S15187 1961 30 SP MM NOT_NAMED 1961-03-18 18:00:00 TS -25.3426 -166.382 main 1422 1422 O________OP_O_ jtwc_sh SH261961 -25.3000 -166.400 -1 -25.3000 193.600 TC 65 -25.3703 -166.329 4 -25.4000 -166.400 TC 40 15 124
1961071S15187 1961 30 SP MM NOT_NAMED 1961-03-18 21:00:00 TS -25.7668 -165.678 main 1503 1503 P________PP_P_ SH261961 -25.7424 -165.685 -1 -25.7424 -165.685 TC 65 -25.7826 -165.652 4 -25.7998 -165.692 TC 37 15 125
1961071S15187 1961 30 SP MM NOT_NAMED 1961-03-19 00:00:00 TS -26.2000 -165.000 main 1576 1576 O________OO_O_ jtwc_sh SH261961 -26.2000 -165.000 -1 -26.2000 195.000 TC 65 -26.2000 -165.000 4 -26.2000 -165.000 TC 35 15 127
1961071S15187 1961 30 SP MM NOT_NAMED 1961-03-19 03:00:00 TS -26.6527 -164.368 main 1655 1655 P________PP_P_ SH261961 -26.6495 -164.392 -1 -26.6495 -164.392 TC 65 -26.6699 -164.353 4 -26.6422 -164.335 TC 35 14 129
1961071S15187 1961 30 SP MM NOT_NAMED 1961-03-19 06:00:00 TS -27.1108 -163.757 main 1724 1724 O________OP_O_ jtwc_sh SH261961 -27.1000 -163.800 -1 -27.1000 196.200 TC 65 -27.1432 -163.727 4 -27.1000 -163.700 TC 35 14 130
1961071S15187 1961 30 SP MM NOT_NAMED 1961-03-19 09:00:00 TS -27.5742 -163.126 main 1808 1808 P________PP_P_ SH261961 -27.5649 -163.150 -1 -27.5649 -163.150 TC 65 -27.5950 -163.113 4 -27.5721 -163.092 TC 32 14 129
1961071S15187 1961 30 SP MM NOT_NAMED 1961-03-19 12:00:00 TS -28.0000 -162.500 main 1878 1878 O________OO_O_ jtwc_sh SH261961 -28.0000 -162.500 -1 -28.0000 197.500 TC 65 -28.0000 -162.500 4 -28.0000 -162.500 TC 30 13 126
1961071S15187 1961 30 SP MM NOT_NAMED 1961-03-19 15:00:00 TS -28.3609 -161.897 main 1948 1948 P________PP_P_ SH261961 -28.3870 -161.900 -1 -28.3870 -161.900 TC 65 -28.3400 -161.882 4 -28.3296 -161.907 TC 30 13 122
1961071S15187 1961 30 SP MM NOT_NAMED 1961-03-19 18:00:00 TS -28.6563 -161.290 main 2009 2009 O________OP_O_ jtwc_sh SH261961 -28.7000 -161.300 -1 -28.7000 198.700 TC 65 -28.6251 -161.259 4 -28.6000 -161.300 TC 30 12 116
1961071S15187 1961 30 SP MM NOT_NAMED 1961-03-19 21:00:00 TS -28.8944 -160.654 main 2062 2062 P________PP_P_ SH261961 -28.9258 -160.663 -1 -28.9258 -160.663 TC 65 -28.8727 -160.631 4 -28.8532 -160.661 TC 27 12 111
1961071S15187 1961 30 SP MM NOT_NAMED 1961-03-20 00:00:00 TS -29.1000 -160.000 main 2122 O________OO_O_ jtwc_sh SH261961 -29.1000 -160.000 -1 -29.1000 200.000 TC 65 -29.1000 -160.000 4 -29.1000 -160.000 TC 25 12 110

Digital Typhoon Data and Search

About IBTrACS Database

This database is a web-friendly format of International Best Track Archive for Climate Stewardship (IBTrACS), a global best track data archive curated by NOAA dating back to 1842.

Updated: 2021-10-27